< Typhoon 202118 2021 Season Typhoon 202120 >
Typhoon 202119 (NAMTHEUN)
General InformationTrack Information on Google MapsDetailed Wind InformationForecast History on Google MapsAccess Analytics MapList of All Images || NewsDisaster Info.WeblogTrackbackTyphoon FrontTwiphoonTyphoon Now!Typhoon ImaginationJMA Disaster Info. XMLResourceGoogle EarthGE AnimationAtom FeedGeoJSON
Detalied Best Track (Time Zone = UTC)
Year Month Day Hour Lat. Long. Pressure (hPa) Wind (kt) Class Image Chart
2021 10 9 12 16.9 162.1 1004 30 2 Image Chart
2021 10 9 15 17.0 161.5 1004 30 2 Image Chart
2021 10 9 18 16.9 161.0 1002 30 2 Image Chart
2021 10 9 21 16.9 160.6 1002 30 2 Image Chart
2021 10 10 00 17.0 160.3 1000 35 3 Image Chart
2021 10 10 03 17.0 160.0 1000 35 3 Image Chart
2021 10 10 06 16.9 159.4 1000 35 3 Image Chart
2021 10 10 09 17.0 159.3 1000 35 3 Image Chart
2021 10 10 12 17.2 159.2 1000 35 3 Image Chart
2021 10 10 15 17.6 158.9 1000 35 3 Image Chart
2021 10 10 18 17.9 158.8 1000 35 3 Image Chart
2021 10 10 21 18.0 158.0 1000 35 3 Image Chart
2021 10 11 00 18.1 157.3 1000 35 3 Image Chart
2021 10 11 03 18.4 156.8 998 40 3 Image Chart
2021 10 11 06 18.6 156.0 998 40 3 Image Chart
2021 10 11 09 18.7 155.5 998 40 3 Image Chart
2021 10 11 12 19.3 155.1 998 40 3 Image Chart
2021 10 11 15 19.0 154.1 998 40 3 Image Chart
2021 10 11 18 18.8 153.2 998 40 3 Image Chart
2021 10 11 21 19.0 152.1 998 40 3 Image Chart
2021 10 12 00 19.5 152.1 998 40 3 Image Chart
2021 10 12 03 19.6 152.1 998 40 3 Image Chart
2021 10 12 06 19.6 152.1 998 40 3 Image Chart
2021 10 12 09 19.4 151.9 998 40 3 Image Chart
2021 10 12 12 20.1 151.9 998 40 3 Image Chart
2021 10 12 15 20.8 152.2 998 40 3 Image Chart
2021 10 12 18 21.2 152.4 998 40 3 Image Chart
2021 10 12 21 21.5 152.1 998 40 3 Image Chart
2021 10 13 00 21.7 152.4 998 40 3 Image Chart
2021 10 13 03 22.2 152.4 998 40 3 Image Chart
2021 10 13 06 22.4 152.9 1000 40 3 Image Chart
2021 10 13 09 22.6 153.3 1000 40 3 Image Chart
2021 10 13 12 22.7 153.6 1000 40 3 Image Chart
2021 10 13 15 23.0 154.0 1000 40 3 Image Chart
2021 10 13 18 23.7 154.7 1000 40 3 Image Chart
2021 10 13 21 23.8 155.2 1000 40 3 Image Chart
2021 10 14 00 24.0 155.8 998 45 3 Image Chart
2021 10 14 03 24.2 157.0 998 45 3 Image Chart
2021 10 14 06 24.3 157.4 998 45 3 Image Chart
2021 10 14 09 24.4 157.6 998 45 3 Image Chart
2021 10 14 12 24.4 157.9 998 45 3 Image Chart
2021 10 14 15 24.5 158.5 998 45 3 Image Chart
2021 10 14 18 25.2 159.3 998 45 3 Image Chart
2021 10 14 21 25.5 159.6 998 45 3 Image Chart
2021 10 15 00 25.8 160.0 998 45 3 Image Chart
2021 10 15 03 26.2 160.3 998 45 3 Image Chart
2021 10 15 06 26.5 160.7 998 45 3 Image Chart
2021 10 15 09 26.6 161.2 998 45 3 Image Chart
2021 10 15 12 27.0 161.8 998 45 3 Image Chart
2021 10 15 15 27.4 162.3 998 45 3 Image Chart
2021 10 15 18 28.0 162.8 998 45 3 Image Chart
2021 10 15 21 28.5 163.2 998 45 3 Image Chart
2021 10 16 00 29.2 164.3 998 45 3 Image Chart
2021 10 16 03 29.9 164.7 998 45 3 Image Chart
2021 10 16 06 30.7 165.1 996 50 4 Image Chart
2021 10 16 09 31.4 165.3 996 50 4 Image Chart
2021 10 16 12 31.9 165.4 998 45 3 Image Chart
2021 10 16 15 32.3 166.1 998 45 3 Image Chart
2021 10 16 18 32.7 166.8 1000 40 3 Image Chart
2021 10 16 21 33.2 167.0 1000 40 3 Image Chart
2021 10 17 00 34.0 167.0 1002 35 6 Image Chart
Japan Meteorological Agency Best Track Data | Correction Date : 2021-10-17
< Typhoon 202118 2021 Season Typhoon 202120 >

Help